Ivolandia, Brazil
Current Conditions -  °F | °C
As of 3:00 AM on Wednesday 26 Nov 2014 (Local Time) from SBGO Reporting Station
Overcast Overcast  
Wind Chill: 70°   Ceiling: 7000
Heat Index: 70°   Visibility: 6mi
Dew Point: 68°   Wind: 3mph
Humidity: 94%   Direction: 10°N
Pressure: 29.94"   Gusts: NA
Location:  16.58°S, 50.85°W
Report Text: SBGO 260500Z 01003KT 9999 FEW012 SCT017 OVC070 21/20 Q1014
Loading
Personal Weather Stations






























Interactive Weather Map New forecast layout! Learn more

10-Day Weather Forecast

Advertisements
Track Severe Weather on mobile